createdAt,value
2023-04-21T00:03:56.994Z,9.77
2023-04-21T00:14:02.757Z,9.65
2023-04-21T00:24:09.884Z,9.58
2023-04-21T00:34:15.686Z,9.49
2023-04-21T00:44:21.319Z,9.34
2023-04-21T00:54:28.108Z,9.23
2023-04-21T01:04:37.328Z,9.03
2023-04-21T01:14:43.868Z,8.88
2023-04-21T01:24:50.833Z,8.77
2023-04-21T01:34:58.144Z,8.66
2023-04-21T01:45:04.225Z,8.54
2023-04-21T01:55:11.967Z,8.46
2023-04-21T02:05:16.214Z,8.36
2023-04-21T02:15:21.958Z,8.29
2023-04-21T02:25:28.239Z,8.19
2023-04-21T02:35:34.704Z,8.18
2023-04-21T02:45:40.908Z,8.10
2023-04-21T02:55:46.641Z,8.03
2023-04-21T03:05:57.008Z,7.96
2023-04-21T03:16:02.970Z,7.87
2023-04-21T03:26:11.826Z,7.70
2023-04-21T03:36:17.399Z,7.63
2023-04-21T03:46:23.532Z,7.62
2023-04-21T03:56:29.561Z,7.67
2023-04-21T04:06:35.866Z,7.79
2023-04-21T04:16:42.291Z,7.98
2023-04-21T04:26:48.098Z,8.21
2023-04-21T04:36:53.928Z,8.44
2023-04-21T04:47:00.179Z,8.75
2023-04-21T04:57:06.187Z,9.27
2023-04-21T05:07:11.850Z,9.89
2023-04-21T05:17:17.455Z,13.35
2023-04-21T05:27:23.219Z,20.60
2023-04-21T05:37:28.948Z,25.69
2023-04-21T05:47:35.332Z,30.29
2023-04-21T05:57:41.268Z,31.68
2023-04-21T06:07:47.047Z,32.53
2023-04-21T06:17:56.893Z,34.15
2023-04-21T06:28:02.650Z,34.55
2023-04-21T06:38:09.414Z,33.93
2023-04-21T06:48:15.242Z,35.65
2023-04-21T06:58:21.599Z,36.99
2023-04-21T07:08:27.478Z,36.59
2023-04-21T07:18:34.789Z,37.47
2023-04-21T07:28:41.754Z,38.70
2023-04-21T07:38:47.471Z,39.95
2023-04-21T07:48:53.241Z,41.43
2023-04-21T07:58:58.994Z,42.23
2023-04-21T08:09:04.773Z,41.83
2023-04-21T08:19:11.395Z,42.30
2023-04-21T08:29:17.624Z,38.26
2023-04-21T08:39:23.448Z,30.56
2023-04-21T08:49:31.714Z,25.23
2023-04-21T08:59:37.458Z,23.38
2023-04-21T09:09:56.230Z,22.24
2023-04-21T09:20:16.848Z,20.93
2023-04-21T09:30:23.055Z,19.97
2023-04-21T09:40:30.312Z,19.94
2023-04-21T09:51:07.129Z,19.52
2023-04-21T10:01:03.417Z,19.14
2023-04-21T10:11:09.716Z,18.66
2023-04-21T10:21:22.114Z,17.91
2023-04-21T10:31:32.749Z,17.64
2023-04-21T10:41:38.477Z,17.47
2023-04-21T10:52:07.380Z,17.34
2023-04-21T11:02:17.798Z,17.01
2023-04-21T11:12:23.740Z,16.77
2023-04-21T11:22:29.634Z,16.57
2023-04-21T11:32:38.006Z,16.74
2023-04-21T11:42:44.117Z,16.67
2023-04-21T11:52:53.700Z,16.71
2023-04-21T12:02:59.735Z,16.59
2023-04-21T12:13:05.626Z,16.68
2023-04-21T12:23:11.387Z,16.71
2023-04-21T12:33:17.302Z,16.89
2023-04-21T12:43:23.580Z,16.86
2023-04-21T12:53:31.209Z,16.90
2023-04-21T13:03:35.909Z,16.89
2023-04-21T13:13:42.327Z,16.93
2023-04-21T13:23:48.631Z,17.09
2023-04-21T13:33:54.396Z,17.00
2023-04-21T13:44:00.535Z,16.89
2023-04-21T13:54:06.389Z,16.96
2023-04-21T14:04:12.228Z,17.09
2023-04-21T14:14:31.313Z,17.01
2023-04-21T14:24:44.125Z,16.78
2023-04-21T14:34:53.379Z,16.75
2023-04-21T14:44:59.252Z,16.78
2023-04-21T14:55:05.522Z,16.83
2023-04-21T15:05:12.528Z,16.87
2023-04-21T15:15:18.140Z,16.76
2023-04-21T15:25:24.069Z,16.71
2023-04-21T15:35:30.034Z,16.65
2023-04-21T15:45:35.868Z,16.65
2023-04-21T15:55:41.689Z,16.61
2023-04-21T16:05:47.489Z,16.51
2023-04-21T16:15:53.922Z,16.52
2023-04-21T16:25:59.822Z,16.45
2023-04-21T16:36:06.145Z,16.27
2023-04-21T16:46:11.844Z,16.03
2023-04-21T16:56:17.492Z,15.82
2023-04-21T17:06:23.171Z,15.59
2023-04-21T17:16:29.276Z,15.29
2023-04-21T17:26:35.457Z,15.01
2023-04-21T17:36:41.435Z,14.68
2023-04-21T17:46:47.465Z,14.32
2023-04-21T17:56:53.284Z,13.95
2023-04-21T18:06:59.742Z,13.68
2023-04-21T18:17:06.140Z,13.43
2023-04-21T18:27:11.781Z,13.13
2023-04-21T18:37:18.034Z,12.89
2023-04-21T18:47:24.321Z,12.65
2023-04-21T18:57:30.581Z,12.48
2023-04-21T19:07:36.828Z,12.29
2023-04-21T19:17:42.609Z,12.12
2023-04-21T19:27:48.471Z,11.97
2023-04-21T19:37:54.338Z,11.79
2023-04-21T19:48:00.183Z,11.59
2023-04-21T19:58:06.055Z,11.36
2023-04-21T20:08:11.902Z,11.27
2023-04-21T20:18:17.647Z,11.04
2023-04-21T20:28:23.446Z,10.76
2023-04-21T20:38:29.311Z,10.41
2023-04-21T20:48:35.043Z,10.02
2023-04-21T20:58:40.696Z,9.96
2023-04-21T21:08:46.984Z,9.66
2023-04-21T21:18:52.628Z,9.50
2023-04-21T21:28:59.090Z,9.43
2023-04-21T21:39:07.754Z,9.18
2023-04-21T21:49:14.961Z,9.19
2023-04-21T21:59:21.197Z,9.51
2023-04-21T22:09:27.080Z,9.69
2023-04-21T22:19:34.112Z,9.68
2023-04-21T22:29:40.372Z,9.31
2023-04-21T22:39:46.540Z,8.71
2023-04-21T22:49:53.545Z,8.13
2023-04-21T22:59:59.151Z,7.58
2023-04-21T23:10:05.723Z,7.17
2023-04-21T23:20:13.365Z,6.81
2023-04-21T23:30:17.689Z,6.52
2023-04-21T23:40:23.506Z,6.26
2023-04-21T23:50:29.410Z,6.08
